Sun Universe — 3FOQ4 — position and weather

sailwx.info

Track history (hours):
 
Tides and Currents Weather Stations Pressure Air Temp Water Temp Dewpoint Dewpoint Depression Visibility Wind Speed Wind Dir Waves Ship Positions

Sun Universe

Last reported at 2015-Jan-29 01:33 UTC. Time now 2015-Feb-01 00:32 UTC.
Position N 22°52' E 119°56'.

Length 116 m; draft 5 m.

Type: Cargo ship. MMSI: 371647000.

Date/timePositionNaut miles runAvg speedWind from/ knotsBaromVisibWave heightAir tempDewpointWater temp
2015-Jan-29 01:33N 22°52' E 119°56'1211.7
2015-Jan-29 00:33N 22°43' E 120°05'1111.3
2015-Jan-28 23:33N 22°37' E 120°15'2 2.3
2015-Jan-28 22:31N 22°37' E 120°18'0 0.0
2015-Jan-28 21:31N 22°37' E 120°18'0 0.0
2015-Jan-28 20:25N 22°37' E 120°18'0 0.0
2015-Jan-28 19:31N 22°37' E 120°18'0 0.0
2015-Jan-28 18:31N 22°37' E 120°18'0 0.0
2015-Jan-28 17:31N 22°37' E 120°18'0 0.0
2015-Jan-28 16:31N 22°37' E 120°18'0 0.0
2015-Jan-28 15:31N 22°37' E 120°18'0 0.0
2015-Jan-28 14:31N 22°37' E 120°18'0 0.0
2015-Jan-28 13:31N 22°37' E 120°18'0 0.0
2015-Jan-28 12:25N 22°37' E 120°18'0 0.0
2015-Jan-28 11:25N 22°37' E 120°18'0 0.0
2015-Jan-28 10:31N 22°37' E 120°18'0 0.0
2015-Jan-28 09:25N 22°37' E 120°18'0 0.0
2015-Jan-28 08:31N 22°37' E 120°18'0 0.0
2015-Jan-28 07:25N 22°37' E 120°18'0 0.0
2015-Jan-28 06:31N 22°37' E 120°18'0 0.0
2015-Jan-28 05:31N 22°37' E 120°18'0 0.0
2015-Jan-28 04:31N 22°37' E 120°18'0 0.0
2015-Jan-28 03:07N 22°37' E 120°18'0 0.0
2015-Jan-28 02:25N 22°37' E 120°18'0 0.0
2015-Jan-28 01:31N 22°37' E 120°18'0 0.0
2015-Jan-28 00:31N 22°37' E 120°18'0 0.0
2015-Jan-27 23:31N 22°37' E 120°18'0 0.0
2015-Jan-27 22:31N 22°37' E 120°18'0 0.0
2015-Jan-27 21:31N 22°37' E 120°18'0 0.0
2015-Jan-27 20:25N 22°37' E 120°18'0 0.0
2015-Jan-27 19:25N 22°37' E 120°18'0 0.0
2015-Jan-27 18:31N 22°37' E 120°18'0 0.0
2015-Jan-27 17:31N 22°37' E 120°18'0 0.0
2015-Jan-27 16:31N 22°37' E 120°18'0 0.0
2015-Jan-27 15:31N 22°37' E 120°18'0 0.0
2015-Jan-27 14:25N 22°37' E 120°18'0 0.0
2015-Jan-27 13:31N 22°37' E 120°18'0 0.0
2015-Jan-27 12:31N 22°37' E 120°18'0 0.0
2015-Jan-27 11:31N 22°37' E 120°18'0 0.0
2015-Jan-27 10:31N 22°37' E 120°18'0 0.0
2015-Jan-27 09:31N 22°37' E 120°18'0 0.0
2015-Jan-27 08:31N 22°37' E 120°18'0 0.0
2015-Jan-27 07:25N 22°37' E 120°18'0 0.0
2015-Jan-27 06:31N 22°37' E 120°18'0 0.0
2015-Jan-27 05:31N 22°37' E 120°18'1 0.5
2015-Jan-27 04:33N 22°37' E 120°17'4 4.1
2015-Jan-27 03:33N 22°37' E 120°13'2 1.8
2015-Jan-27 02:32N 22°39' E 120°13'0 0.0
2015-Jan-27 01:32N 22°39' E 120°13'0 0.0
2015-Jan-27 00:32N 22°39' E 120°13'0 0.1
2015-Jan-26 23:32N 22°39' E 120°13'0 0.0
2015-Jan-26 22:32N 22°39' E 120°13'0 0.0
2015-Jan-26 21:32N 22°39' E 120°13'0 0.0
2015-Jan-26 20:26N 22°39' E 120°13'0 0.0
2015-Jan-26 19:32N 22°39' E 120°13'0 0.1
2015-Jan-26 18:32N 22°39' E 120°13'0 0.0
2015-Jan-26 17:32N 22°39' E 120°13'0 0.0
2015-Jan-26 16:32N 22°39' E 120°13'0 0.0
2015-Jan-26 15:32N 22°39' E 120°13'0 0.0
2015-Jan-26 14:32N 22°39' E 120°13'1 0.7
2015-Jan-26 13:33N 22°39' E 120°13'7 6.8
2015-Jan-26 12:33N 22°42' E 120°06'1211.6
2015-Jan-26 11:33N 22°49' E 119°56'  
Track history (hours):
 
Tides and Currents Weather Stations Pressure Air Temp Water Temp Dewpoint Dewpoint Depression Visibility Wind Speed Wind Dir Waves Ship Positions

Sun Universe

Last reported at 2015-Jan-29 01:33 UTC. Time now 2015-Feb-01 00:32 UTC.
Position N 22°52' E 119°56'.

Length 116 m; draft 5 m.

Type: Cargo ship. MMSI: 371647000.

Date/timePositionNaut miles runAvg speedWind from/ knotsBaromVisibWave heightAir tempDewpointWater temp
2015-Jan-29 01:33N 22°52' E 119°56'1211.7
2015-Jan-29 00:33N 22°43' E 120°05'1111.3
2015-Jan-28 23:33N 22°37' E 120°15'2 2.3
2015-Jan-28 22:31N 22°37' E 120°18'0 0.0
2015-Jan-28 21:31N 22°37' E 120°18'0 0.0
2015-Jan-28 20:25N 22°37' E 120°18'0 0.0
2015-Jan-28 19:31N 22°37' E 120°18'0 0.0
2015-Jan-28 18:31N 22°37' E 120°18'0 0.0
2015-Jan-28 17:31N 22°37' E 120°18'0 0.0
2015-Jan-28 16:31N 22°37' E 120°18'0 0.0
2015-Jan-28 15:31N 22°37' E 120°18'0 0.0
2015-Jan-28 14:31N 22°37' E 120°18'0 0.0
2015-Jan-28 13:31N 22°37' E 120°18'0 0.0
2015-Jan-28 12:25N 22°37' E 120°18'0 0.0
2015-Jan-28 11:25N 22°37' E 120°18'0 0.0
2015-Jan-28 10:31N 22°37' E 120°18'0 0.0
2015-Jan-28 09:25N 22°37' E 120°18'0 0.0
2015-Jan-28 08:31N 22°37' E 120°18'0 0.0
2015-Jan-28 07:25N 22°37' E 120°18'0 0.0
2015-Jan-28 06:31N 22°37' E 120°18'0 0.0
2015-Jan-28 05:31N 22°37' E 120°18'0 0.0
2015-Jan-28 04:31N 22°37' E 120°18'0 0.0
2015-Jan-28 03:07N 22°37' E 120°18'0 0.0
2015-Jan-28 02:25N 22°37' E 120°18'0 0.0
2015-Jan-28 01:31N 22°37' E 120°18'0 0.0
2015-Jan-28 00:31N 22°37' E 120°18'0 0.0
2015-Jan-27 23:31N 22°37' E 120°18'0 0.0
2015-Jan-27 22:31N 22°37' E 120°18'0 0.0
2015-Jan-27 21:31N 22°37' E 120°18'0 0.0
2015-Jan-27 20:25N 22°37' E 120°18'0 0.0
2015-Jan-27 19:25N 22°37' E 120°18'0 0.0
2015-Jan-27 18:31N 22°37' E 120°18'0 0.0
2015-Jan-27 17:31N 22°37' E 120°18'0 0.0
2015-Jan-27 16:31N 22°37' E 120°18'0 0.0
2015-Jan-27 15:31N 22°37' E 120°18'0 0.0
2015-Jan-27 14:25N 22°37' E 120°18'0 0.0
2015-Jan-27 13:31N 22°37' E 120°18'0 0.0
2015-Jan-27 12:31N 22°37' E 120°18'0 0.0
2015-Jan-27 11:31N 22°37' E 120°18'0 0.0
2015-Jan-27 10:31N 22°37' E 120°18'0 0.0
2015-Jan-27 09:31N 22°37' E 120°18'0 0.0
2015-Jan-27 08:31N 22°37' E 120°18'0 0.0
2015-Jan-27 07:25N 22°37' E 120°18'0 0.0
2015-Jan-27 06:31N 22°37' E 120°18'0 0.0
2015-Jan-27 05:31N 22°37' E 120°18'1 0.5
2015-Jan-27 04:33N 22°37' E 120°17'4 4.1
2015-Jan-27 03:33N 22°37' E 120°13'2 1.8
2015-Jan-27 02:32N 22°39' E 120°13'0 0.0
2015-Jan-27 01:32N 22°39' E 120°13'0 0.0
2015-Jan-27 00:32N 22°39' E 120°13'0 0.1
2015-Jan-26 23:32N 22°39' E 120°13'0 0.0
2015-Jan-26 22:32N 22°39' E 120°13'0 0.0
2015-Jan-26 21:32N 22°39' E 120°13'0 0.0
2015-Jan-26 20:26N 22°39' E 120°13'0 0.0
2015-Jan-26 19:32N 22°39' E 120°13'0 0.1
2015-Jan-26 18:32N 22°39' E 120°13'0 0.0
2015-Jan-26 17:32N 22°39' E 120°13'0 0.0
2015-Jan-26 16:32N 22°39' E 120°13'0 0.0
2015-Jan-26 15:32N 22°39' E 120°13'0 0.0
2015-Jan-26 14:32N 22°39' E 120°13'1 0.7
2015-Jan-26 13:33N 22°39' E 120°13'7 6.8
2015-Jan-26 12:33N 22°42' E 120°06'1211.6
2015-Jan-26 11:33N 22°49' E 119°56'  

Dump ship's entire track history